createdAt,value
2018-03-29T00:01:07.668Z,52.24
2018-03-29T00:03:36.080Z,52.09
2018-03-29T00:06:04.504Z,52.12
2018-03-29T00:08:33.204Z,52.22
2018-03-29T00:11:01.718Z,52.20
2018-03-29T00:13:30.182Z,52.70
2018-03-29T00:15:59.000Z,52.43
2018-03-29T00:18:27.923Z,52.66
2018-03-29T00:20:56.556Z,52.92
2018-03-29T00:23:24.968Z,52.90
2018-03-29T00:25:53.379Z,52.76
2018-03-29T00:28:24.346Z,52.89
2018-03-29T00:30:53.144Z,53.04
2018-03-29T00:33:22.367Z,53.01
2018-03-29T00:35:50.840Z,53.04
2018-03-29T00:38:20.268Z,53.01
2018-03-29T00:40:49.999Z,53.11
2018-03-29T00:43:19.638Z,53.10
2018-03-29T00:45:48.052Z,53.29
2018-03-29T00:48:17.589Z,53.44
2018-03-29T00:50:46.098Z,53.53
2018-03-29T00:53:26.627Z,53.45
2018-03-29T00:55:55.770Z,53.51
2018-03-29T00:58:24.362Z,53.68
2018-03-29T01:00:53.379Z,53.91
2018-03-29T01:03:21.790Z,54.14
2018-03-29T01:05:50.567Z,54.41
2018-03-29T01:08:20.092Z,54.83
2018-03-29T01:10:49.989Z,54.63
2018-03-29T01:13:19.219Z,54.49
2018-03-29T01:15:47.860Z,54.34
2018-03-29T01:18:17.806Z,54.41
2018-03-29T01:20:46.598Z,54.49
2018-03-29T01:23:15.048Z,54.41
2018-03-29T01:25:43.460Z,54.47
2018-03-29T01:28:12.503Z,54.18
2018-03-29T01:30:41.851Z,54.37
2018-03-29T01:33:10.328Z,54.42
2018-03-29T01:35:38.802Z,54.72
2018-03-29T01:38:07.214Z,54.44
2018-03-29T01:40:35.640Z,54.57
2018-03-29T01:43:05.332Z,54.18
2018-03-29T01:45:33.847Z,54.20
2018-03-29T01:48:02.260Z,54.13
2018-03-29T01:50:31.657Z,54.10
2018-03-29T01:53:00.528Z,54.24
2018-03-29T01:55:29.089Z,54.26
2018-03-29T01:57:58.633Z,54.05
2018-03-29T02:00:27.705Z,53.94
2018-03-29T02:02:56.422Z,53.79
2018-03-29T02:05:25.012Z,53.73
2018-03-29T02:07:53.687Z,53.74
2018-03-29T02:10:22.096Z,53.66
2018-03-29T02:12:50.588Z,53.65
2018-03-29T02:15:19.636Z,53.72
2018-03-29T02:17:48.345Z,53.66
2018-03-29T02:20:17.031Z,53.66
2018-03-29T02:22:46.211Z,53.63
2018-03-29T02:25:14.704Z,53.70
2018-03-29T02:27:44.202Z,53.69
2018-03-29T02:30:12.619Z,53.58
2018-03-29T02:32:41.032Z,53.65
2018-03-29T02:35:09.801Z,53.70
2018-03-29T02:37:39.089Z,53.79
2018-03-29T02:40:09.206Z,53.85
2018-03-29T02:42:37.806Z,54.04
2018-03-29T02:45:06.967Z,54.05
2018-03-29T02:47:35.425Z,54.22
2018-03-29T02:50:04.973Z,54.55
2018-03-29T02:52:33.394Z,54.45
2018-03-29T02:55:02.362Z,54.86
2018-03-29T02:57:31.137Z,54.72
2018-03-29T02:59:59.553Z,54.78
2018-03-29T03:02:28.113Z,54.92
2018-03-29T03:04:57.564Z,55.04
2018-03-29T03:07:27.187Z,54.97
2018-03-29T03:09:55.644Z,54.89
2018-03-29T03:12:24.371Z,55.09
2018-03-29T03:14:53.504Z,55.13
2018-03-29T03:17:22.373Z,55.09
2018-03-29T03:19:51.233Z,55.30
2018-03-29T03:22:20.206Z,55.40
2018-03-29T03:24:48.625Z,55.54
2018-03-29T03:27:17.347Z,55.54
2018-03-29T03:29:46.215Z,55.61
2018-03-29T03:32:15.090Z,55.81
2018-03-29T03:34:44.701Z,55.85
2018-03-29T03:37:13.484Z,56.03
2018-03-29T03:39:41.931Z,56.23
2018-03-29T03:42:10.801Z,56.45
2018-03-29T03:44:39.744Z,56.44
2018-03-29T03:47:09.062Z,56.69
2018-03-29T03:49:37.984Z,56.81
2018-03-29T03:52:07.136Z,56.95
2018-03-29T03:54:35.677Z,57.22
2018-03-29T03:57:04.099Z,57.11
2018-03-29T03:59:33.715Z,57.43
2018-03-29T04:02:02.154Z,57.32
2018-03-29T04:04:31.070Z,57.55
2018-03-29T04:06:59.959Z,57.48
2018-03-29T04:09:29.481Z,57.74
2018-03-29T04:11:58.880Z,57.72
2018-03-29T04:14:27.814Z,57.99
2018-03-29T04:16:59.101Z,58.17
2018-03-29T04:19:28.104Z,57.77
2018-03-29T04:21:56.808Z,58.76
2018-03-29T04:24:25.363Z,58.39
2018-03-29T04:26:53.823Z,58.30
2018-03-29T04:29:22.801Z,58.16
2018-03-29T04:31:51.302Z,58.64
2018-03-29T04:34:19.716Z,58.36
2018-03-29T04:36:48.580Z,58.37
2018-03-29T04:39:17.233Z,58.37
2018-03-29T04:41:45.659Z,58.79
2018-03-29T04:44:14.828Z,58.98
2018-03-29T04:46:43.533Z,58.74
2018-03-29T04:49:12.194Z,58.93
2018-03-29T04:51:40.861Z,58.75
2018-03-29T04:54:09.440Z,59.73
2018-03-29T04:56:37.977Z,59.41
2018-03-29T04:59:06.767Z,59.39
2018-03-29T05:01:36.248Z,59.36
2018-03-29T05:04:04.760Z,59.92
2018-03-29T05:06:33.171Z,59.62
2018-03-29T05:09:01.621Z,59.45
2018-03-29T05:11:30.084Z,61.17
2018-03-29T05:13:59.058Z,60.34
2018-03-29T05:16:29.017Z,60.08
2018-03-29T05:18:57.427Z,60.59
2018-03-29T05:21:26.084Z,60.53
2018-03-29T05:23:54.885Z,61.46
2018-03-29T05:26:23.456Z,60.91
2018-03-29T05:28:51.976Z,62.20
2018-03-29T05:31:21.508Z,61.04
2018-03-29T05:33:50.136Z,61.86
2018-03-29T05:36:18.600Z,61.35
2018-03-29T05:38:47.021Z,61.62
2018-03-29T05:41:15.436Z,62.20
2018-03-29T05:43:43.868Z,62.92
2018-03-29T05:46:13.208Z,62.41
2018-03-29T05:48:41.676Z,61.22
2018-03-29T05:51:10.188Z,63.50
2018-03-29T05:53:39.450Z,61.55
2018-03-29T05:56:08.341Z,62.00
2018-03-29T05:58:37.345Z,62.34
2018-03-29T06:01:05.806Z,63.33
2018-03-29T06:03:34.261Z,63.23
2018-03-29T06:06:02.683Z,64.20
2018-03-29T06:08:31.674Z,64.73
2018-03-29T06:11:00.334Z,66.05
2018-03-29T06:13:28.845Z,66.41
2018-03-29T06:16:03.533Z,66.83
2018-03-29T06:18:32.783Z,67.77
2018-03-29T06:21:01.356Z,67.66
2018-03-29T06:23:30.031Z,69.84
2018-03-29T06:25:59.477Z,70.97
2018-03-29T06:28:28.666Z,72.53
2018-03-29T06:30:57.205Z,70.77
2018-03-29T06:33:26.281Z,70.41
2018-03-29T06:35:54.969Z,71.62
2018-03-29T06:38:23.919Z,71.24
2018-03-29T06:40:53.278Z,71.30
2018-03-29T06:43:21.723Z,73.44
2018-03-29T06:45:50.137Z,73.07
2018-03-29T06:48:18.905Z,73.44
2018-03-29T06:50:49.352Z,72.96
2018-03-29T06:53:18.606Z,74.11
2018-03-29T06:55:47.327Z,74.58
2018-03-29T06:58:16.670Z,74.01
2018-03-29T07:00:45.090Z,73.81
2018-03-29T07:03:13.509Z,74.21
2018-03-29T07:05:42.917Z,73.62
2018-03-29T07:08:12.292Z,74.46
2018-03-29T07:10:41.310Z,74.19
2018-03-29T07:13:10.308Z,75.37
2018-03-29T07:15:39.136Z,74.48
2018-03-29T07:18:07.994Z,75.26
2018-03-29T07:20:37.342Z,75.25
2018-03-29T07:23:05.977Z,74.94
2018-03-29T07:25:35.805Z,77.32
2018-03-29T07:28:04.736Z,75.93
2018-03-29T07:30:33.840Z,75.18
2018-03-29T07:33:02.312Z,76.11
2018-03-29T07:35:30.905Z,77.58
2018-03-29T07:37:59.363Z,75.97
2018-03-29T07:40:28.385Z,77.33
2018-03-29T07:42:57.206Z,76.26
2018-03-29T07:45:25.945Z,76.68
2018-03-29T07:47:54.507Z,75.76
2018-03-29T07:50:23.024Z,76.55
2018-03-29T07:52:52.161Z,77.10
2018-03-29T07:55:20.588Z,76.18
2018-03-29T07:57:49.007Z,76.15
2018-03-29T08:00:18.352Z,76.10
2018-03-29T08:02:48.913Z,77.26
2018-03-29T08:05:17.666Z,77.58
2018-03-29T08:07:46.268Z,78.16
2018-03-29T08:10:15.310Z,78.02
2018-03-29T08:12:43.878Z,78.11
2018-03-29T08:15:12.807Z,77.63
2018-03-29T08:17:41.717Z,79.73
2018-03-29T08:20:10.308Z,79.53
2018-03-29T08:22:38.787Z,78.03
2018-03-29T08:25:07.251Z,78.09
2018-03-29T08:27:36.548Z,78.03
2018-03-29T08:30:05.478Z,77.84
2018-03-29T08:32:34.397Z,78.48
2018-03-29T08:35:02.821Z,78.80
2018-03-29T08:37:31.362Z,79.51
2018-03-29T08:39:59.798Z,77.70
2018-03-29T08:42:28.537Z,78.45
2018-03-29T08:44:57.410Z,80.06
2018-03-29T08:47:26.320Z,78.34
2018-03-29T08:49:55.493Z,78.60
2018-03-29T08:52:23.916Z,80.74
2018-03-29T08:54:53.607Z,78.92
2018-03-29T08:57:22.119Z,79.50
2018-03-29T08:59:50.851Z,78.87
2018-03-29T09:02:19.446Z,80.34
2018-03-29T09:04:47.895Z,81.33
2018-03-29T09:07:16.346Z,81.72
2018-03-29T09:09:45.304Z,80.79
2018-03-29T09:12:13.732Z,80.33
2018-03-29T09:14:42.166Z,79.76
2018-03-29T09:17:10.872Z,80.71
2018-03-29T09:19:39.304Z,80.38
2018-03-29T09:22:07.873Z,80.16
2018-03-29T09:24:36.925Z,81.00
2018-03-29T09:27:05.795Z,82.08
2018-03-29T09:29:34.639Z,82.45
2018-03-29T09:32:03.421Z,80.90
2018-03-29T09:34:32.422Z,82.31
2018-03-29T09:37:01.911Z,81.77
2018-03-29T09:39:30.927Z,82.68
2018-03-29T09:41:59.406Z,80.87
2018-03-29T09:44:28.122Z,81.06
2018-03-29T09:46:56.540Z,81.04
2018-03-29T09:49:25.349Z,81.22
2018-03-29T09:51:53.811Z,80.79
2018-03-29T09:54:22.266Z,81.83
2018-03-29T09:56:50.765Z,81.67
2018-03-29T09:59:19.385Z,81.97
2018-03-29T10:01:47.809Z,80.98
2018-03-29T10:04:16.251Z,81.36
2018-03-29T10:06:47.533Z,82.59
2018-03-29T10:09:15.958Z,82.82
2018-03-29T10:11:44.783Z,82.78
2018-03-29T10:14:13.625Z,82.81
2018-03-29T10:16:43.459Z,81.96
2018-03-29T10:19:12.536Z,82.48
2018-03-29T10:21:41.053Z,81.96
2018-03-29T10:24:09.597Z,83.03
2018-03-29T10:26:39.439Z,82.47
2018-03-29T10:29:08.227Z,81.81
2018-03-29T10:31:37.627Z,81.74
2018-03-29T10:34:06.087Z,82.98
2018-03-29T10:36:34.577Z,82.33
2018-03-29T10:39:03.505Z,81.94
2018-03-29T10:41:32.302Z,82.49
2018-03-29T10:44:01.065Z,82.38
2018-03-29T10:46:30.127Z,84.00
2018-03-29T10:48:59.290Z,83.62
2018-03-29T10:51:29.095Z,82.19
2018-03-29T10:53:59.415Z,82.40
2018-03-29T10:56:28.152Z,83.33
2018-03-29T10:58:56.710Z,82.81
2018-03-29T11:01:25.505Z,83.35
2018-03-29T11:03:54.083Z,82.81
2018-03-29T11:06:22.970Z,82.42
2018-03-29T11:08:51.732Z,82.55
2018-03-29T11:11:20.276Z,83.26
2018-03-29T11:13:59.222Z,81.99
2018-03-29T11:16:29.092Z,82.95
2018-03-29T11:18:58.082Z,83.68
2018-03-29T11:21:26.561Z,82.99
2018-03-29T11:23:55.314Z,82.57
2018-03-29T11:26:24.239Z,82.53
2018-03-29T11:28:53.339Z,82.47
2018-03-29T11:31:21.775Z,82.21
2018-03-29T11:33:50.200Z,82.54
2018-03-29T11:36:18.999Z,82.69
2018-03-29T11:38:47.475Z,82.78
2018-03-29T11:41:16.344Z,82.54
2018-03-29T11:43:45.827Z,81.88
2018-03-29T11:46:14.814Z,82.30
2018-03-29T11:48:51.474Z,82.47
2018-03-29T11:51:20.547Z,83.32
2018-03-29T11:53:49.080Z,82.92
2018-03-29T11:56:17.500Z,82.51
2018-03-29T11:58:45.946Z,82.90
2018-03-29T12:01:14.575Z,82.26
2018-03-29T12:03:43.145Z,82.50
2018-03-29T12:06:11.744Z,82.67
2018-03-29T12:08:41.960Z,82.51
2018-03-29T12:11:10.435Z,82.31
2018-03-29T12:13:38.931Z,82.35
2018-03-29T12:16:08.295Z,82.30
2018-03-29T12:18:48.869Z,82.57
2018-03-29T12:21:28.522Z,82.11
2018-03-29T12:23:56.986Z,82.07
2018-03-29T12:26:25.584Z,82.13
2018-03-29T12:28:54.846Z,82.77
2018-03-29T12:31:24.214Z,82.02
2018-03-29T12:33:53.153Z,82.18
2018-03-29T12:36:21.595Z,81.77
2018-03-29T12:38:50.493Z,81.87
2018-03-29T12:41:18.969Z,81.92
2018-03-29T12:43:48.927Z,81.52
2018-03-29T12:46:18.234Z,81.71
2018-03-29T12:48:46.658Z,81.80
2018-03-29T12:51:15.313Z,81.98
2018-03-29T12:53:44.662Z,82.16
2018-03-29T12:56:25.432Z,82.48
2018-03-29T12:58:54.268Z,82.63
2018-03-29T13:01:22.792Z,82.01
2018-03-29T13:03:51.576Z,82.16
2018-03-29T13:06:20.980Z,81.98
2018-03-29T13:08:50.701Z,81.90
2018-03-29T13:11:19.614Z,82.21
2018-03-29T13:13:48.077Z,82.19
2018-03-29T13:16:17.798Z,82.59
2018-03-29T13:18:47.117Z,82.41
2018-03-29T13:21:16.070Z,82.53
2018-03-29T13:23:45.010Z,82.73
2018-03-29T13:26:14.604Z,82.50
2018-03-29T13:28:43.390Z,82.41
2018-03-29T13:31:13.788Z,82.54
2018-03-29T13:33:44.467Z,82.46
2018-03-29T13:36:12.908Z,82.32
2018-03-29T13:38:42.674Z,82.18
2018-03-29T13:41:12.427Z,82.58
2018-03-29T13:43:40.970Z,82.40
2018-03-29T13:46:09.817Z,82.55
2018-03-29T13:48:38.919Z,82.53
2018-03-29T13:51:07.382Z,82.55
2018-03-29T13:53:36.648Z,82.69
2018-03-29T13:56:05.106Z,82.46
2018-03-29T13:58:34.168Z,82.70
2018-03-29T14:01:04.398Z,82.56
2018-03-29T14:03:34.338Z,82.57
2018-03-29T14:06:03.111Z,82.95
2018-03-29T14:08:32.186Z,82.74
2018-03-29T14:11:00.708Z,82.69
2018-03-29T14:13:29.593Z,82.75
2018-03-29T14:15:58.318Z,82.52
2018-03-29T14:18:27.100Z,82.75
2018-03-29T14:20:56.206Z,82.66
2018-03-29T14:23:25.090Z,82.94
2018-03-29T14:25:53.919Z,82.84
2018-03-29T14:28:22.693Z,82.83
2018-03-29T14:30:51.891Z,83.20
2018-03-29T14:33:20.740Z,83.04
2018-03-29T14:35:50.404Z,82.91
2018-03-29T14:38:19.434Z,83.15
2018-03-29T14:40:48.924Z,82.96
2018-03-29T14:43:17.370Z,82.97
2018-03-29T14:45:46.096Z,83.06
2018-03-29T14:48:14.765Z,82.97
2018-03-29T14:50:43.726Z,82.95
2018-03-29T14:53:13.134Z,82.98
2018-03-29T14:55:41.615Z,83.10
2018-03-29T14:58:10.682Z,83.20
2018-03-29T15:00:39.995Z,82.95
2018-03-29T15:03:08.592Z,83.02
2018-03-29T15:05:37.581Z,83.03
2018-03-29T15:08:07.581Z,83.03
2018-03-29T15:10:37.825Z,82.93
2018-03-29T15:13:06.281Z,83.01
2018-03-29T15:15:34.785Z,82.98
2018-03-29T15:18:03.265Z,82.82
2018-03-29T15:20:32.287Z,82.84
2018-03-29T15:23:01.228Z,82.94
2018-03-29T15:25:29.727Z,82.71
2018-03-29T15:27:58.412Z,82.70
2018-03-29T15:30:28.052Z,82.65
2018-03-29T15:32:56.483Z,82.61
2018-03-29T15:35:26.120Z,82.65
2018-03-29T15:37:54.649Z,82.53
2018-03-29T15:40:23.413Z,82.50
2018-03-29T15:42:51.898Z,82.32
2018-03-29T15:45:22.635Z,82.43
2018-03-29T15:47:52.645Z,82.37
2018-03-29T15:50:21.329Z,82.34
2018-03-29T15:52:51.051Z,82.37
2018-03-29T15:55:19.874Z,82.43
2018-03-29T15:57:48.840Z,82.33
2018-03-29T16:00:17.481Z,82.37
2018-03-29T16:02:46.032Z,82.34
2018-03-29T16:05:14.549Z,82.40
2018-03-29T16:07:44.650Z,82.37
2018-03-29T16:10:14.081Z,82.41
2018-03-29T16:12:43.004Z,82.37
2018-03-29T16:15:13.637Z,82.40
2018-03-29T16:17:42.556Z,82.44
2018-03-29T16:20:11.285Z,82.52
2018-03-29T16:22:40.391Z,82.64
2018-03-29T16:25:09.402Z,82.77
2018-03-29T16:27:37.885Z,82.73
2018-03-29T16:30:10.830Z,82.75
2018-03-29T16:32:41.795Z,82.82
2018-03-29T16:35:10.428Z,82.79
2018-03-29T16:37:41.113Z,82.86
2018-03-29T16:40:09.605Z,82.85
2018-03-29T16:42:38.112Z,82.89
2018-03-29T16:45:07.098Z,82.93
2018-03-29T16:47:36.004Z,82.95
2018-03-29T16:50:05.278Z,82.99
2018-03-29T16:52:34.285Z,83.02
2018-03-29T16:55:03.227Z,82.91
2018-03-29T16:57:31.748Z,82.95
2018-03-29T17:00:00.888Z,82.92
2018-03-29T17:02:29.356Z,82.92
2018-03-29T17:05:00.023Z,82.94
2018-03-29T17:07:28.765Z,82.96
2018-03-29T17:09:58.203Z,82.96
2018-03-29T17:12:27.274Z,83.00
2018-03-29T17:14:55.800Z,83.05
2018-03-29T17:17:24.277Z,83.04
2018-03-29T17:19:53.970Z,83.08
2018-03-29T17:22:22.405Z,83.18
2018-03-29T17:24:51.170Z,83.21
2018-03-29T17:27:21.661Z,83.31
2018-03-29T17:29:50.129Z,83.33
2018-03-29T17:32:18.596Z,83.46
2018-03-29T17:34:47.024Z,83.44
2018-03-29T17:37:15.700Z,83.42
2018-03-29T17:39:44.141Z,83.40
2018-03-29T17:42:22.184Z,83.42
2018-03-29T17:44:51.478Z,83.41
2018-03-29T17:47:19.977Z,83.39
2018-03-29T17:49:48.452Z,83.43
2018-03-29T17:52:16.895Z,83.36
2018-03-29T17:54:45.715Z,83.50
2018-03-29T17:57:14.181Z,83.41
2018-03-29T17:59:42.622Z,83.49
2018-03-29T18:02:11.086Z,83.37
2018-03-29T18:04:39.851Z,83.38
2018-03-29T18:07:09.175Z,83.28
2018-03-29T18:09:37.600Z,83.30
2018-03-29T18:12:06.026Z,83.27
2018-03-29T18:14:34.479Z,83.24
2018-03-29T18:17:03.831Z,83.25
2018-03-29T18:19:32.281Z,83.17
2018-03-29T18:22:01.048Z,83.15
2018-03-29T18:24:30.204Z,83.10
2018-03-29T18:26:58.631Z,83.01
2018-03-29T18:29:27.356Z,82.96
2018-03-29T18:31:56.118Z,82.86
2018-03-29T18:34:24.547Z,82.84
2018-03-29T18:36:52.994Z,82.76
2018-03-29T18:39:21.467Z,82.74
2018-03-29T18:41:50.877Z,82.70
2018-03-29T18:44:20.368Z,82.70
2018-03-29T18:46:48.872Z,82.65
2018-03-29T18:49:17.376Z,82.65
2018-03-29T18:51:46.248Z,82.65
2018-03-29T18:54:15.157Z,82.68
2018-03-29T18:56:43.669Z,82.82
2018-03-29T18:59:12.120Z,82.81
2018-03-29T19:01:41.003Z,82.89
2018-03-29T19:04:09.492Z,83.01
2018-03-29T19:06:38.052Z,82.97
2018-03-29T19:09:06.536Z,83.05
2018-03-29T19:11:34.988Z,83.11
2018-03-29T19:14:03.480Z,83.08
2018-03-29T19:16:31.936Z,83.09
2018-03-29T19:19:00.373Z,83.18
2018-03-29T19:21:28.888Z,83.15
2018-03-29T19:23:57.377Z,83.18
2018-03-29T19:26:25.856Z,83.12
2018-03-29T19:28:54.409Z,83.08
2018-03-29T19:31:22.956Z,83.07
2018-03-29T19:33:51.432Z,83.11
2018-03-29T19:36:19.898Z,83.14
2018-03-29T19:38:49.826Z,83.17
2018-03-29T19:41:21.785Z,83.20
2018-03-29T19:43:50.389Z,83.16
2018-03-29T19:46:20.055Z,83.17
2018-03-29T19:48:49.674Z,83.15
2018-03-29T19:51:18.305Z,83.07
2018-03-29T19:53:47.179Z,83.04
2018-03-29T19:56:20.143Z,82.93
2018-03-29T19:58:50.242Z,82.91
2018-03-29T20:01:22.402Z,82.86
2018-03-29T20:03:51.160Z,82.83
2018-03-29T20:06:19.827Z,82.80
2018-03-29T20:08:48.652Z,82.73
2018-03-29T20:11:17.120Z,82.70
2018-03-29T20:13:45.721Z,82.72
2018-03-29T20:16:14.728Z,82.76
2018-03-29T20:18:43.190Z,82.82
2018-03-29T20:21:12.660Z,82.92
2018-03-29T20:23:42.000Z,82.99
2018-03-29T20:26:10.513Z,83.09
2018-03-29T20:28:38.973Z,83.14
2018-03-29T20:31:08.416Z,83.25
2018-03-29T20:33:37.198Z,83.26
2018-03-29T20:36:05.683Z,83.18
2018-03-29T20:38:34.176Z,83.14
2018-03-29T20:41:03.028Z,83.07
2018-03-29T20:43:34.283Z,83.03
2018-03-29T20:46:02.890Z,83.08
2018-03-29T20:48:31.783Z,83.02
2018-03-29T20:51:01.571Z,83.18
2018-03-29T20:53:30.078Z,83.27
2018-03-29T20:55:59.489Z,83.40
2018-03-29T20:58:29.001Z,83.62
2018-03-29T21:00:58.388Z,83.43
2018-03-29T21:03:27.256Z,83.22
2018-03-29T21:05:55.696Z,83.30
2018-03-29T21:08:24.138Z,83.13
2018-03-29T21:10:52.635Z,83.03
2018-03-29T21:13:21.060Z,83.00
2018-03-29T21:15:49.503Z,82.90
2018-03-29T21:18:17.939Z,82.93
2018-03-29T21:20:46.371Z,82.91
2018-03-29T21:23:14.804Z,82.87
2018-03-29T21:25:43.244Z,82.86
2018-03-29T21:28:11.672Z,83.00
2018-03-29T21:30:40.459Z,83.04
2018-03-29T21:33:08.891Z,83.03
2018-03-29T21:35:37.380Z,83.05
2018-03-29T21:38:05.812Z,83.05
2018-03-29T21:40:34.313Z,83.00
2018-03-29T21:43:02.773Z,82.85
2018-03-29T21:45:31.196Z,82.75
2018-03-29T21:47:59.628Z,82.75
2018-03-29T21:50:28.211Z,82.70
2018-03-29T21:52:56.648Z,82.70
2018-03-29T21:55:25.128Z,82.75
2018-03-29T21:57:53.570Z,82.87
2018-03-29T22:00:22.266Z,82.95
2018-03-29T22:02:50.693Z,83.00
2018-03-29T22:05:19.116Z,83.01
2018-03-29T22:07:47.546Z,82.99
2018-03-29T22:10:15.984Z,82.99
2018-03-29T22:12:44.409Z,82.98
2018-03-29T22:15:12.833Z,82.90
2018-03-29T22:17:41.258Z,83.03
2018-03-29T22:20:09.679Z,83.11
2018-03-29T22:22:38.420Z,83.10
2018-03-29T22:25:07.002Z,83.08
2018-03-29T22:27:35.810Z,83.04
2018-03-29T22:30:06.857Z,83.07
2018-03-29T22:32:35.296Z,83.15
2018-03-29T22:35:03.831Z,83.08
2018-03-29T22:37:32.706Z,83.09
2018-03-29T22:40:01.167Z,83.12
2018-03-29T22:42:29.587Z,83.05
2018-03-29T22:44:58.339Z,83.04
2018-03-29T22:47:26.795Z,83.05
2018-03-29T22:49:55.224Z,82.96
2018-03-29T22:52:23.660Z,82.91
2018-03-29T22:54:52.083Z,83.00
2018-03-29T22:57:20.956Z,83.13
2018-03-29T22:59:49.400Z,83.27
2018-03-29T23:02:18.214Z,83.36
2018-03-29T23:04:46.712Z,83.48
2018-03-29T23:07:15.153Z,83.66
2018-03-29T23:09:43.991Z,83.71
2018-03-29T23:12:12.759Z,83.73
2018-03-29T23:14:41.197Z,83.82
2018-03-29T23:17:09.943Z,83.88
2018-03-29T23:19:38.368Z,83.87
2018-03-29T23:22:06.827Z,83.78
2018-03-29T23:24:36.070Z,83.71
2018-03-29T23:27:04.618Z,83.73
2018-03-29T23:29:33.222Z,83.75
2018-03-29T23:32:02.577Z,83.63
2018-03-29T23:34:31.295Z,83.10
2018-03-29T23:37:00.330Z,82.92
2018-03-29T23:39:29.182Z,82.47
2018-03-29T23:41:57.974Z,82.17
2018-03-29T23:44:26.411Z,82.08
2018-03-29T23:46:54.849Z,81.81
2018-03-29T23:49:23.623Z,81.67
2018-03-29T23:51:52.378Z,81.60
2018-03-29T23:54:20.811Z,81.34
2018-03-29T23:56:49.590Z,81.18
2018-03-29T23:59:18.270Z,81.19
